Latest Weather Observations for Fitzroy Crossing

IDW60801

Issued at 1:13 pm WST Saturday 10 December 2022 (issued every 10 minutes, with the page automatically refreshed every 10 minutes)

About weather observations | Map of weather stations | Latest weather observations for WA | Other Formats
Station Details ID: 003093 Name: FITZROY CROSSING AERO Lat: -18.18 Lon: 125.56 Height: 114.5 m
Data from the previous 72 hours. | See also: Recent months at Fitzroy Crossing
Date/Time
WST
Temp
°C
App
Temp
°C
Dew
Point
°C
Rel
Hum
%
Delta-T
°C
Wind Press
QNH
hPa
Press
MSL
hPa
Rain since
9am
mm
Dir  Spd
km/h
Gust
km/h
Spd
kts
Gust
kts
10/01:00pm 41.9 42.1 15.8 22 16.9 SW 9 15 5 8 1006.0 1005.0 0.0
10/12:30pm 41.0 39.5 14.3 20 16.9 SSE 15 20 8 11 1006.3 1005.3 0.0
10/12:00pm 41.2 39.5 13.7 19 17.3 SSE 15 20 8 11 1006.6 1005.6 0.0
10/11:30am 40.9 39.0 14.3 21 16.8 S 17 24 9 13 1006.9 1005.9 0.0
10/11:00am 40.4 39.8 16.6 25 15.5 SSW 15 22 8 12 1007.2 1006.2 0.0
10/10:30am 40.7 38.6 14.8 22 16.5 SW 19 30 10 16 1007.6 1006.6 0.0
10/10:00am 39.6 39.1 15.9 25 15.3 SW 13 19 7 10 1007.9 1006.9 0.0
10/09:30am 38.9 38.5 15.3 25 15.0 WSW 11 15 6 8 1008.1 1007.1 0.0
10/09:00am 37.8 38.2 17.2 29 13.4 W 11 15 6 8 1008.4 1007.4 0.0
10/08:30am 36.8 38.9 19.3 36 11.7 NW 7 11 4 6 1008.6 1007.6 0.0
10/08:00am 34.9 37.0 20.1 42 9.9 W 9 11 5 6 1008.7 1007.7 0.0
10/07:30am 34.0 36.1 18.9 41 9.9 NNW 6 11 3 6 1008.8 1007.8 0.0
10/07:00am 33.1 35.8 20.3 47 8.6 S 6 9 3 5 1008.6 1007.6 0.0
10/06:30am 30.9 33.5 20.5 54 6.9 NW 7 9 4 5 1008.0 1007.0 0.0
10/06:00am 29.8 31.9 20.1 56 6.4 NW 9 13 5 7 1007.6 1006.6 0.0
10/05:30am 28.4 30.4 19.9 60 5.6 NNW 9 15 5 8 1007.4 1006.4 0.0
10/05:00am 28.7 30.1 19.6 58 6.0 WNW 11 15 6 8 1007.0 1006.0 0.0
10/04:30am 29.7 30.7 19.4 54 6.7 SW 13 17 7 9 1006.7 1005.7 0.0
10/04:00am 29.4 30.5 20.5 58 5.9 W 15 24 8 13 1006.0 1005.0 0.0
10/03:30am 28.9 31.5 21.9 66 4.7 N 11 13 6 7 1005.7 1004.7 0.0
10/03:00am 29.6 33.4 20.2 57 6.2 CALM 0 0 0 0 1005.6 1004.6 0.0
10/02:30am 29.7 33.4 20.0 56 6.4 CALM 0 0 0 0 1005.8 1004.8 0.0
10/02:00am 29.3 33.3 21.3 62 5.4 NNE 2 7 1 4 1006.0 1005.0 0.0
10/01:30am 29.3 32.0 20.2 58 6.0 NNW 6 11 3 6 1005.9 1004.9 0.0
10/01:00am 29.3 32.3 21.3 62 5.4 N 7 9 4 5 1005.8 1004.8 0.0
10/12:30am 29.5 31.9 20.9 60 5.7 ENE 9 13 5 7 1006.1 1005.1 0.0
10/12:00am 29.3 31.6 20.7 59 5.7 N 9 11 5 6 1006.0 1005.0 0.0
 
Date/Time
WST
Temp
°C
App
Temp
°C
Dew
Point
°C
Rel
Hum
%
Delta-T
°C
Wind Press
QNH
hPa
Press
MSL
hPa
Rain since
9am
mm
Dir  Spd
km/h
Gust
km/h
Spd
kts
Gust
kts
09/11:30pm 30.3 34.2 21.1 58 6.2 SSW 2 7 1 4 1006.1 1005.1 0.0
09/11:00pm 31.3 33.6 19.9 50 7.6 S 7 9 4 5 1006.5 1005.5 0.0
09/10:30pm 31.3 32.6 19.3 49 7.9 SE 11 13 6 7 1006.8 1005.8 0.0
09/10:00pm 31.8 32.4 18.7 45 8.6 SE 13 17 7 9 1007.0 1006.0 0.0
09/09:30pm 32.5 31.6 18.3 43 9.2 ESE 20 32 11 17 1006.9 1005.9 0.0
09/09:00pm 34.8 32.9 15.2 31 12.3 ESE 19 28 10 15 1006.7 1005.7 0.0
09/08:30pm 34.8 32.7 14.7 30 12.5 ESE 19 24 10 13 1006.6 1005.6 0.0
09/08:00pm 34.9 32.2 14.7 29 12.6 SE 22 32 12 17 1006.3 1005.3 0.0
09/07:30pm 33.4 31.5 16.7 36 10.6 ESE 22 28 12 15 1006.8 1005.8 0.0
09/07:00pm 35.0 31.8 15.3 30 12.4 SSE 26 33 14 18 1006.5 1005.5 0.0
09/06:30pm 32.1 29.5 18.7 45 8.7 ESE 30 43 16 23 1006.8 1005.8 0.0
09/06:00pm 33.2 30.1 17.4 39 10.2 ESE 30 46 16 25 1006.3 1005.3 0.0
09/05:30pm 37.6 35.8 16.0 28 13.8 ENE 20 35 11 19 1005.1 1004.1 0.0
09/05:00pm 40.4 41.0 15.9 23 15.8 NE 7 17 4 9 1004.4 1003.5 0.0
09/04:30pm 41.5 42.3 14.7 20 17.0 S 4 7 2 4 1003.9 1003.0 0.0
09/04:00pm 41.0 40.8 13.6 20 17.2 ESE 7 13 4 7 1004.1 1003.2 0.0
09/03:30pm 41.4 41.6 14.7 21 17.0 S 7 17 4 9 1003.9 1003.0 0.0
09/03:00pm 41.1 40.2 15.8 22 16.4 S 15 20 8 11 1004.0 1003.1 0.0
09/02:30pm 41.7 41.8 15.6 21 16.8 SSW 9 19 5 10 1004.3 1003.4 0.0
09/02:00pm 40.9 40.7 15.7 23 16.3 SSE 11 17 6 9 1004.8 1003.8 0.0
09/01:30pm 40.8 39.8 15.6 23 16.2 S 15 22 8 12 1005.2 1004.2 0.0
09/01:00pm 40.6 40.8 16.7 24 15.6 S 11 20 6 11 1005.7 1004.7 0.0
09/12:30pm 39.7 39.0 15.3 23 15.6 SSE 13 24 7 13 1006.3 1005.3 0.0
09/12:00pm 39.8 39.3 14.8 23 15.9 SSW 11 19 6 10 1006.9 1005.9 0.0
09/11:30am 39.0 37.8 14.1 23 15.6 S 13 20 7 11 1007.3 1006.3 0.0
09/11:00am 38.6 38.2 16.3 27 14.4 SSE 13 19 7 10 1007.7 1006.7 0.0
09/10:30am 38.3 38.4 15.4 25 14.6 SSW 9 17 5 9 1008.2 1007.2 0.0
09/10:00am 37.4 37.2 14.7 26 14.3 SSW 9 15 5 8 1008.5 1007.5 0.0
09/09:30am 37.0 37.3 16.0 28 13.4 SSW 9 15 5 8 1008.7 1007.7 0.0
09/09:00am 36.2 36.6 16.4 31 12.7 SW 9 17 5 9 1008.7 1007.7 0.0
09/08:30am 34.9 35.5 17.6 35 11.2 WSW 11 15 6 8 1008.8 1007.8 0.0
09/08:00am 33.9 35.0 18.8 41 9.9 W 11 17 6 9 1008.7 1007.7 0.0
09/07:30am 32.8 34.2 20.3 47 8.4 W 13 17 7 9 1008.6 1007.6 0.0
09/07:00am 31.4 33.1 21.0 54 7.0 WNW 13 15 7 8 1008.6 1007.6 0.0
09/06:30am 29.1 31.6 21.1 62 5.4 NW 9 13 5 7 1008.4 1007.4 0.0
09/06:00am 27.1 29.9 20.9 69 4.1 NW 7 9 4 5 1008.1 1007.1 0.0
09/05:30am 26.2 28.7 20.3 70 3.9 NW 7 9 4 5 1007.9 1006.9 0.0
09/05:00am 25.5 27.7 19.6 70 3.8 NNW 7 11 4 6 1007.7 1006.7 0.0
09/04:30am 25.9 28.1 19.5 68 4.1 NNW 7 9 4 5 1007.4 1006.4 0.0
09/04:00am 25.7 27.4 19.3 67 4.1 NNW 9 13 5 7 1006.9 1005.9 0.0
09/03:30am 26.0 27.7 19.4 67 4.3 NNW 9 11 5 6 1006.6 1005.6 0.0
09/03:00am 26.6 28.4 19.5 65 4.6 NW 9 13 5 7 1006.3 1005.3 0.0
09/02:30am 27.0 28.2 19.1 62 5.1 NW 11 11 6 6 1006.0 1005.0 0.0
09/02:00am 27.3 29.5 19.1 61 5.3 NW 6 9 3 5 1005.9 1004.9 0.0
09/01:30am 27.9 29.0 18.9 58 5.8 NW 11 15 6 8 1005.8 1004.8 0.0
09/01:00am 28.8 30.2 18.6 54 6.6 NW 9 11 5 6 1005.9 1004.9 0.0
09/12:30am 28.5 29.7 18.3 54 6.5 NW 9 11 5 6 1006.0 1005.0 0.0
09/12:00am 28.5 29.4 18.3 54 6.6 NW 11 13 6 7 1006.3 1005.3 0.0
 
Date/Time
WST
Temp
°C
App
Temp
°C
Dew
Point
°C
Rel
Hum
%
Delta-T
°C
Wind Press
QNH
hPa
Press
MSL
hPa
Rain since
9am
mm
Dir  Spd
km/h
Gust
km/h
Spd
kts
Gust
kts
08/11:30pm 29.7 30.0 17.8 48 7.6 WNW 13 15 7 8 1006.5 1005.5 0.0
08/11:00pm 28.9 29.8 19.2 55 6.3 NW 13 13 7 7 1006.7 1005.7 0.0
08/10:30pm 29.2 29.8 19.5 56 6.3 NW 15 17 8 9 1006.8 1005.8 0.0
08/10:00pm 31.9 33.3 17.8 43 9.1 SW 7 9 4 5 1006.6 1005.6 0.0
08/09:30pm 32.5 33.1 16.8 39 10.0 SSW 9 9 5 5 1006.6 1005.6 0.0
08/09:00pm 32.5 33.1 16.8 39 10.0 SSW 9 9 5 5 1006.5 1005.5 0.0
08/08:30pm 33.2 33.7 16.5 36 10.6 SSW 9 11 5 6 1006.2 1005.2 0.0
08/08:00pm 33.4 34.1 17.1 37 10.5 SSW 9 11 5 6 1006.0 1005.0 0.0
08/07:30pm 34.0 34.2 16.8 35 11.0 SSW 11 11 6 6 1005.8 1004.8 0.0
08/07:00pm 34.7 35.5 17.4 35 11.2 SSW 9 13 5 7 1005.4 1004.4 0.0
08/06:30pm 35.8 35.7 16.0 30 12.6 S 11 13 6 7 1005.1 1004.1 0.0
08/06:00pm 36.8 36.6 15.8 28 13.4 SSW 11 13 6 7 1004.8 1003.8 0.0
08/05:30pm 37.9 36.9 14.5 25 14.7 SSW 13 17 7 9 1004.5 1003.6 0.0
08/05:00pm 39.6 38.4 13.9 22 16.1 SSW 13 19 7 10 1004.2 1003.3 0.0
08/04:30pm 40.5 39.9 12.4 19 17.3 NW 7 9 4 5 1004.0 1003.1 0.0
08/04:00pm 40.6 39.7 12.5 19 17.3 NNW 9 13 5 7 1003.9 1003.0 0.0
08/03:30pm 40.4 40.0 13.1 20 16.9 NNW 7 13 4 7 1004.0 1003.1 0.0
08/03:00pm 41.1 40.6 13.7 20 17.2 WNW 9 15 5 8 1004.3 1003.4 0.0
08/02:30pm 40.5 39.2 12.4 19 17.3 NNW 11 13 6 7 1004.6 1003.7 0.0
08/02:00pm 40.6 39.7 12.5 19 17.3 WNW 9 17 5 9 1005.0 1004.0 0.0
08/01:30pm 40.5 39.9 12.4 19 17.3 NW 7 13 4 7 1005.3 1004.3 0.0
08/01:00pm 39.9 39.0 12.7 20 16.8 NNW 9 15 5 8 1005.7 1004.7 0.0
08/12:30pm 40.1 38.5 12.8 19 16.8 W 13 20 7 11 1006.1 1005.1 0.0
08/12:00pm 39.6 37.4 13.2 21 16.4 W 17 28 9 15 1006.5 1005.5 0.0
08/11:30am 39.0 38.0 14.7 23 15.3 WSW 13 20 7 11 1006.9 1005.9 0.0
08/11:00am 38.8 37.4 14.6 24 15.3 WSW 15 24 8 13 1007.4 1006.4 0.0
08/10:30am 38.1 36.6 15.2 25 14.5 W 17 26 9 14 1007.8 1006.8 0.0
08/10:00am 37.6 36.6 16.5 28 13.6 WNW 17 24 9 13 1008.3 1007.3 0.0
08/09:30am 36.5 35.7 18.1 33 12.1 WNW 19 24 10 13 1008.6 1007.6 0.0
08/09:00am 35.6 35.1 19.1 38 10.9 NW 20 26 11 14 1009.0 1008.1 0.0
08/08:30am 34.6 34.8 20.6 44 9.4 NW 20 28 11 15 1009.1 1008.2 0.0
08/08:00am 33.7 34.6 21.5 49 8.3 NW 19 24 10 13 1009.2 1008.3 0.0
08/07:30am 32.3 33.3 22.1 55 7.0 NNW 20 26 11 14 1009.0 1008.1 0.0
08/07:00am 30.7 32.1 23.6 66 4.9 NNW 22 30 12 16 1008.9 1007.9 0.0
08/06:30am 29.3 31.0 24.0 73 3.7 NNW 22 28 12 15 1008.9 1007.9 0.0
08/06:00am 28.4 30.9 23.8 76 3.2 NW 17 20 9 11 1008.8 1007.8 0.0
08/05:30am 27.6 30.6 23.4 78 2.9 NW 13 17 7 9 1008.6 1007.6 0.0
08/05:00am 27.5 30.5 23.3 78 2.9 WNW 13 20 7 11 1008.1 1007.1 0.0
08/04:30am 27.5 30.6 22.9 76 3.1 WNW 11 15 6 8 1007.6 1006.6 0.0
08/04:00am 27.8 30.3 22.5 73 3.6 WNW 13 17 7 9 1007.3 1006.3 0.0
08/03:30am 28.1 29.5 21.9 69 4.2 WNW 17 20 9 11 1006.9 1005.9 0.0
08/03:00am 27.7 29.7 21.5 69 4.2 NW 13 19 7 10 1006.5 1005.5 0.0
08/02:30am 28.3 30.3 21.6 67 4.5 NW 13 19 7 10 1006.1 1005.1 0.0
08/02:00am 28.4 30.5 21.7 67 4.5 NW 13 17 7 9 1006.1 1005.1 0.0
08/01:30am 28.8 31.1 22.1 67 4.5 NW 13 19 7 10 1006.0 1005.0 0.0
08/01:00am 28.7 31.8 22.2 68 4.4 NNW 9 15 5 8 1006.0 1005.0 0.0
08/12:30am 29.6 31.5 22.1 64 5.1 NW 15 20 8 11 1005.8 1004.8 0.0
08/12:00am 30.0 31.8 21.9 62 5.5 NW 15 20 8 11 1006.1 1005.1 0.0
 
Date/Time
WST
Temp
°C
App
Temp
°C
Dew
Point
°C
Rel
Hum
%
Delta-T
°C
Wind Press
QNH
hPa
Press
MSL
hPa
Rain since
9am
mm
Dir  Spd
km/h
Gust
km/h
Spd
kts
Gust
kts
07/11:30pm 30.2 31.9 21.6 60 5.8 NW 15 22 8 12 1006.1 1005.1 0.0
07/11:00pm 30.6 31.6 21.7 59 6.0 NW 19 24 10 13 1006.2 1005.2 0.0
07/10:30pm 30.2 32.1 22.1 62 5.5 NNW 15 20 8 11 1006.3 1005.3 0.0
07/10:00pm 30.2 31.9 21.0 58 6.2 NNW 13 19 7 10 1006.3 1005.3 0.0
07/09:30pm 30.2 34.5 23.6 67 4.6 N 7 13 4 7 1005.7 1004.7 0.0
07/09:00pm 31.5 35.0 22.2 57 6.4 SE 7 9 4 5 1005.5 1004.5 0.0
07/08:30pm 33.0 34.5 18.0 41 9.7 SSW 7 9 4 5 1005.4 1004.4 0.0
07/08:00pm 33.7 35.6 19.0 42 9.7 SSW 7 9 4 5 1005.3 1004.3 0.0
07/07:30pm 34.1 37.3 21.2 47 8.8 S 6 9 3 5 1005.1 1004.1 0.0
07/07:00pm 35.3 35.2 16.1 32 12.2 S 11 11 6 6 1004.8 1003.8 0.0
07/06:30pm 35.9 36.2 16.1 30 12.6 S 9 11 5 6 1004.4 1003.5 0.0
07/06:00pm 37.3 37.1 15.7 27 13.8 SSW 11 13 6 7 1004.1 1003.2 0.0
07/05:30pm 39.0 38.2 14.1 23 15.6 S 11 13 6 7 1003.8 1002.9 0.0
07/05:00pm 39.9 39.3 13.4 20 16.5 SSE 9 13 5 7 1003.6 1002.7 0.0
07/04:30pm 40.3 39.2 13.0 20 16.9 S 11 15 6 8 1003.5 1002.6 0.0
07/04:00pm 40.7 40.4 13.3 19 17.1 SE 7 15 4 8 1003.3 1002.4 0.0
07/03:30pm 40.4 38.7 12.3 19 17.2 SE 13 19 7 10 1003.3 1002.4 0.0
07/03:00pm 40.8 40.5 13.4 20 17.1 WNW 7 15 4 8 1003.4 1002.5 0.0
07/02:30pm 41.0 40.8 13.6 20 17.1 NW 7 13 4 7 1003.8 1002.9 0.0
07/02:00pm 40.5 40.7 13.2 20 17.0 NW 4 11 2 6 1004.2 1003.3 0.0
07/01:30pm 40.0 39.2 12.8 20 16.8 NNW 9 13 5 7 1004.8 1003.8 0.0

Other formats

Comma delimited format used in spreadsheet applications
http://www.bom.gov.au/fwo/IDW60801/IDW60801.94206.axf

JavaScript Object Notation format (JSON) in row-major order
http://www.bom.gov.au/fwo/IDW60801/IDW60801.94206.json

Data quality

Most of these data are generated automatically and are frequently updated. Quality checks on data are not normally performed. It is possible for incorrect values to appear. Refer to information at About Latest Weather Observations and please check the disclaimer before using these data.